Latest Weather Observations for Tewantin

IDQ60901

Issued at 6:51 pm EST Monday 24 June 2019 (issued every 10 minutes, with the page automatically refreshed every 10 minutes)

About weather observations | Map of Brisbane area stations | Latest observations for Brisbane area | Other Formats
Station Details ID: 040908 Name: TEWANTIN RSL PARK Lat: -26.39 Lon: 153.04 Height: 6.4 m
Data from the previous 72 hours. | See also: Recent months at Tewantin
Date/Time
EST
Temp
°C
App
Temp
°C
Dew
Point
°C
Rel
Hum
%
Delta-T
°C
Wind Press
QNH
hPa
Press
MSL
hPa
Rain since
9am
mm
Dir  Spd
km/h
Gust
km/h
Spd
kts
Gust
kts
24/06:30pm 14.4 13.3 9.8 74 2.4 SSW 6 9 3 5 1023.7 1023.7 0.0
24/06:00pm 15.2 13.9 9.8 70 2.8 SSW 7 9 4 5 1023.2 1023.2 0.0
24/05:30pm 15.8 13.9 9.2 65 3.4 S 9 11 5 6 1022.9 1022.9 0.0
24/05:00pm 16.7 14.8 9.1 61 3.9 S 9 13 5 7 1022.6 1022.6 0.0
24/04:30pm 17.5 15.3 9.2 58 4.3 SSE 11 20 6 11 1022.4 1022.4 0.0
24/04:00pm 17.8 15.9 8.9 56 4.6 SSE 9 17 5 9 1022.2 1022.2 0.0
24/03:30pm 18.0 15.6 8.8 55 4.8 SE 11 20 6 11 1022.0 1022.0 0.0
24/03:00pm 17.9 15.5 8.5 54 4.8 SSE 11 19 6 10 1021.8 1021.8 0.0
24/02:30pm 18.7 15.9 8.7 52 5.2 SSE 13 24 7 13 1021.6 1021.6 0.0
24/02:00pm 19.7 17.0 7.4 45 6.2 SSW 11 20 6 11 1021.5 1021.5 0.0
24/01:30pm 19.4 15.6 7.5 46 6.1 S 17 28 9 15 1021.6 1021.6 0.0
24/01:00pm 19.5 16.3 8.5 49 5.7 S 15 24 8 13 1021.7 1021.7 0.0
24/12:30pm 19.4 15.7 7.8 47 5.9 S 17 26 9 14 1022.0 1022.0 0.0
24/12:00pm 18.9 15.7 8.3 50 5.4 SSE 15 24 8 13 1022.3 1022.3 0.0
24/11:30am 18.6 15.2 9.1 54 5.0 S 17 28 9 15 1022.5 1022.5 0.0
24/11:00am 17.9 13.2 7.9 52 5.1 S 22 32 12 17 1022.7 1022.7 0.0
24/10:30am 18.0 14.1 8.6 54 4.9 S 19 28 10 15 1022.8 1022.8 0.0
24/10:00am 17.2 13.0 8.1 55 4.6 S 20 28 11 15 1023.1 1023.1 0.0
24/09:30am 16.9 12.9 8.3 57 4.4 S 19 32 10 17 1023.1 1023.1 0.0
24/09:00am 16.4 12.6 7.6 56 4.4 S 17 32 9 17 1023.0 1023.0 0.0
24/08:30am 15.8 13.0 8.5 62 3.7 S 13 20 7 11 1022.7 1022.7 0.0
24/08:00am 14.9 13.2 8.4 65 3.3 SSW 7 11 4 6 1022.7 1022.7 0.0
24/07:30am 13.7 11.6 8.1 69 2.8 SSW 9 17 5 9 1022.4 1022.4 0.0
24/07:00am 13.0 10.5 8.1 72 2.4 S 11 17 6 9 1022.0 1022.0 0.0
24/06:30am 13.0 10.1 8.1 72 2.4 S 13 19 7 10 1021.5 1021.5 0.0
24/06:00am 13.1 9.9 8.4 73 2.3 S 15 28 8 15 1021.0 1021.0 0.0
24/05:30am 13.1 10.7 8.6 74 2.2 S 11 15 6 8 1020.9 1020.9 0.0
24/05:00am 13.3 10.6 9.0 75 2.2 S 13 20 7 11 1020.7 1020.7 0.0
24/04:30am 12.3 10.9 9.7 84 1.3 S 7 11 4 6 1020.5 1020.5 0.0
24/04:00am 12.6 11.3 9.8 83 1.4 SSE 7 11 4 6 1020.6 1020.6 0.0
24/03:30am 13.1 11.7 11.0 87 1.1 SSE 9 15 5 8 1020.5 1020.5 0.0
24/03:00am 13.4 12.7 11.3 87 1.1 SSE 6 13 3 7 1020.6 1020.6 0.0
24/02:30am 13.9 12.4 11.8 87 1.1 S 11 15 6 8 1020.6 1020.6 0.0
24/02:00am 14.3 13.8 12.0 86 1.2 SSE 6 9 3 5 1021.0 1021.0 0.0
24/01:30am 14.5 13.4 11.8 84 1.5 SSE 9 15 5 8 1020.8 1020.8 0.0
24/01:00am 14.8 13.3 11.9 83 1.6 S 11 19 6 10 1021.0 1021.0 0.0
24/12:30am 15.0 13.9 11.8 81 1.7 S 9 15 5 8 1021.1 1021.1 0.0
24/12:00am 15.3 13.1 12.2 82 1.7 S 15 20 8 11 1021.1 1021.1 0.0
 
Date/Time
EST
Temp
°C
App
Temp
°C
Dew
Point
°C
Rel
Hum
%
Delta-T
°C
Wind Press
QNH
hPa
Press
MSL
hPa
Rain since
9am
mm
Dir  Spd
km/h
Gust
km/h
Spd
kts
Gust
kts
23/11:30pm 15.3 14.6 12.1 81 1.7 SSE 7 11 4 6 1021.3 1021.3 0.0
23/11:00pm 15.3 13.5 12.2 82 1.7 S 13 20 7 11 1021.1 1021.1 0.0
23/10:30pm 15.3 13.5 12.1 81 1.7 S 13 22 7 12 1021.0 1021.0 0.0
23/10:00pm 15.2 13.8 12.3 83 1.6 SSW 11 20 6 11 1020.9 1020.9 0.0
23/09:30pm 15.3 14.0 12.4 83 1.6 SSW 11 17 6 9 1020.9 1020.9 0.0
23/09:00pm 15.3 14.3 12.4 83 1.6 SSW 9 13 5 7 1020.9 1020.9 0.0
23/08:30pm 15.4 14.4 12.3 82 1.7 SSW 9 15 5 8 1021.0 1021.0 0.0
23/08:00pm 15.3 13.9 12.1 81 1.7 SSW 11 17 6 9 1020.9 1020.9 0.0
23/07:30pm 15.2 15.0 11.8 80 1.8 S 4 11 2 6 1020.8 1020.8 0.0
23/07:00pm 15.6 15.1 12.2 80 1.8 SE 6 9 3 5 1020.7 1020.7 0.0
23/06:30pm 15.9 14.8 12.1 78 2.1 SSW 9 17 5 9 1020.5 1020.5 0.0
23/06:00pm 16.3 14.6 12.3 77 2.2 S 13 19 7 10 1020.0 1020.0 0.0
23/05:30pm 16.7 15.4 12.5 76 2.3 SSW 11 13 6 7 1020.0 1020.0 0.0
23/05:00pm 17.4 15.7 12.5 73 2.7 S 13 19 7 10 1019.7 1019.7 0.0
23/04:30pm 18.1 16.4 12.5 70 3.1 S 13 22 7 12 1019.7 1019.7 0.0
23/04:00pm 18.4 16.2 12.2 67 3.4 SSE 15 22 8 12 1019.4 1019.4 0.0
23/03:30pm 18.5 17.0 11.8 65 3.7 SSE 11 19 6 10 1019.3 1019.3 0.0
23/03:00pm 18.9 17.0 11.7 63 4.0 SSE 13 22 7 12 1019.3 1019.3 0.0
23/02:30pm 19.2 17.3 11.7 62 4.1 SSE 13 20 7 11 1019.3 1019.3 0.0
23/02:00pm 19.2 17.1 11.0 59 4.5 SSE 13 22 7 12 1019.3 1019.3 0.0
23/01:30pm 19.6 16.9 10.3 55 5.0 S 15 22 8 12 1019.5 1019.5 0.0
23/01:00pm 19.5 17.0 11.0 58 4.6 SSE 15 30 8 16 1019.7 1019.7 0.0
23/12:30pm 18.9 16.7 10.7 59 4.4 SE 13 22 7 12 1020.0 1020.0 0.0
23/12:00pm 19.2 16.3 11.0 59 4.4 S 17 28 9 15 1020.4 1020.4 0.0
23/11:30am 18.5 14.8 10.3 59 4.4 S 20 32 11 17 1021.0 1021.0 0.0
23/11:00am 18.1 14.5 9.7 58 4.4 S 19 26 10 14 1021.4 1021.4 0.0
23/10:30am 18.1 14.8 9.7 58 4.4 S 17 28 9 15 1021.5 1021.5 0.0
23/10:00am 17.7 13.9 9.8 60 4.2 S 20 28 11 15 1021.6 1021.6 0.0
23/09:30am 17.3 14.3 9.2 59 4.2 S 15 26 8 14 1021.6 1021.6 0.0
23/09:00am 17.0 13.7 9.7 62 3.8 S 17 24 9 13 1021.6 1021.6 0.0
23/08:30am 16.0 12.8 8.5 61 3.8 S 15 22 8 12 1021.5 1021.5 0.0
23/08:00am 15.8 11.8 8.3 61 3.8 S 19 30 10 16 1021.2 1021.2 0.0
23/07:30am 14.8 12.0 8.7 67 3.1 S 13 22 7 12 1021.0 1021.0 0.0
23/07:00am 13.6 10.7 8.0 69 2.8 S 13 17 7 9 1020.8 1020.8 0.0
23/06:30am 13.6 10.6 7.6 67 2.9 S 13 19 7 10 1020.7 1020.7 0.0
23/06:00am 13.2 10.6 7.9 70 2.6 S 11 15 6 8 1020.5 1020.5 0.0
23/05:30am 12.5 10.6 7.4 71 2.5 S 7 11 4 6 1020.5 1020.5 0.0
23/05:00am 12.8 10.5 7.3 69 2.7 SSW 9 13 5 7 1020.0 1020.0 0.0
23/04:30am 13.1 10.3 7.1 67 2.9 S 11 15 6 8 1019.9 1019.9 0.0
23/04:00am 13.3 10.9 6.9 65 3.1 SSW 9 17 5 9 1019.6 1019.6 0.0
23/03:30am 13.3 10.9 7.1 66 3.0 SSW 9 15 5 8 1020.0 1020.0 0.0
23/03:00am 13.2 10.8 7.2 67 2.9 S 9 11 5 6 1020.2 1020.2 0.0
23/02:30am 13.2 10.8 7.2 67 2.9 S 9 15 5 8 1020.2 1020.2 0.0
23/02:00am 13.2 10.5 7.4 68 2.8 S 11 19 6 10 1020.4 1020.4 0.0
23/01:30am 13.0 10.8 7.9 71 2.5 SSW 9 15 5 8 1020.7 1020.7 0.0
23/01:00am 12.7 11.0 8.2 74 2.2 SSW 7 11 4 6 1020.9 1020.9 0.0
23/12:30am 13.0 11.0 8.7 75 2.2 SSW 9 17 5 9 1021.0 1021.0 0.0
23/12:00am 13.2 10.9 9.1 76 2.1 SSW 11 17 6 9 1021.3 1021.3 0.0
 
Date/Time
EST
Temp
°C
App
Temp
°C
Dew
Point
°C
Rel
Hum
%
Delta-T
°C
Wind Press
QNH
hPa
Press
MSL
hPa
Rain since
9am
mm
Dir  Spd
km/h
Gust
km/h
Spd
kts
Gust
kts
22/11:30pm 13.3 11.4 9.2 76 2.1 SSW 9 15 5 8 1021.2 1021.2 0.0
22/11:00pm 13.3 11.4 9.2 76 2.1 S 9 15 5 8 1021.3 1021.3 0.0
22/10:30pm 13.2 11.3 8.9 75 2.2 SSW 9 17 5 9 1021.4 1021.4 0.0
22/10:00pm 13.3 11.7 8.6 73 2.3 SSW 7 13 4 7 1021.7 1021.7 0.0
22/09:30pm 12.9 11.4 8.6 75 2.1 SSW 6 9 3 5 1021.7 1021.7 0.0
22/09:00pm 12.8 11.6 8.1 73 2.3 SSW 4 9 2 5 1021.8 1021.8 0.0
22/08:30pm 13.3 11.6 8.2 71 2.5 SSW 7 9 4 5 1021.8 1021.8 0.0
22/08:00pm 13.4 11.1 7.6 68 2.8 S 9 11 5 6 1021.7 1021.7 0.0
22/07:30pm 13.3 11.6 7.7 69 2.7 SSW 6 9 3 5 1021.7 1021.7 0.0
22/07:00pm 13.8 11.8 7.3 65 3.2 SSW 7 46 4 25 1021.4 1021.4 0.0
22/06:30pm 14.5 12.4 6.8 60 3.7 S 7 11 4 6 1021.1 1021.1 0.0
22/06:00pm 15.0 13.0 7.3 60 3.8 SSW 7 9 4 5 1020.8 1020.8 0.0
22/05:30pm 15.7 13.5 6.4 54 4.5 S 7 9 4 5 1020.5 1020.5 0.0
22/05:00pm 16.9 14.3 6.1 49 5.2 S 9 15 5 8 1020.3 1020.3 0.0
22/04:30pm 17.5 14.5 5.8 46 5.7 SSE 11 17 6 9 1020.3 1020.3 0.0
22/04:00pm 17.8 14.9 6.7 48 5.5 SSE 11 19 6 10 1019.9 1019.9 0.0
22/03:30pm 18.4 14.7 4.6 40 6.6 SSE 13 20 7 11 1019.8 1019.8 0.0
22/03:00pm 18.6 14.1 4.0 38 6.9 SSE 17 28 9 15 1019.7 1019.7 0.0
22/02:30pm 18.8 15.3 5.6 42 6.5 SSE 13 24 7 13 1019.4 1019.4 0.0
22/02:00pm 18.8 14.6 5.6 42 6.4 SE 17 28 9 15 1019.4 1019.4 0.0
22/01:30pm 19.1 15.8 6.6 44 6.2 SSE 13 22 7 12 1019.5 1019.5 0.0
22/01:00pm 19.0 15.1 5.5 41 6.6 SSE 15 28 8 15 1019.6 1019.6 0.0
22/12:30pm 19.4 15.6 5.8 41 6.7 SSE 15 26 8 14 1019.7 1019.7 0.0
22/12:00pm 18.7 14.2 5.9 43 6.3 S 19 30 10 16 1020.1 1020.1 0.0
22/11:30am 18.3 13.7 6.5 46 5.9 S 20 32 11 17 1020.5 1020.5 0.0
22/11:00am 17.7 12.7 6.6 48 5.5 S 22 35 12 19 1020.9 1020.9 0.0
22/10:30am 17.4 12.9 6.9 50 5.2 S 20 41 11 22 1021.3 1021.3 0.0
22/10:00am 16.9 11.6 7.0 52 4.9 S 24 35 13 19 1021.4 1021.4 0.0
22/09:30am 16.5 11.2 6.9 53 4.7 S 24 37 13 20 1021.5 1021.5 0.0
22/09:00am 15.9 10.6 6.6 54 4.5 S 24 37 13 20 1021.6 1021.6 0.0
22/08:30am 15.2 9.8 6.5 56 4.2 S 24 35 13 19 1021.3 1021.3 0.0
22/08:00am 14.6 9.2 6.2 57 4.0 S 24 33 13 18 1021.1 1021.1 0.0
22/07:30am 14.0 9.3 6.1 59 3.8 S 20 33 11 18 1020.8 1020.8 0.0
22/07:00am 13.5 9.1 6.4 62 3.4 S 19 30 10 16 1020.5 1020.5 0.0
22/06:30am 13.6 9.0 6.5 62 3.4 S 20 33 11 18 1020.1 1020.1 0.0
22/06:00am 13.8 9.2 6.7 62 3.4 S 20 33 11 18 1019.7 1019.7 0.0
22/05:30am 13.9 9.3 6.7 62 3.5 S 20 32 11 17 1019.5 1019.5 0.0
22/05:00am 14.0 9.7 6.8 62 3.5 S 19 28 10 15 1019.1 1019.1 0.0
22/04:30am 13.9 9.5 6.7 62 3.5 S 19 26 10 14 1018.9 1018.9 0.0
22/04:00am 13.9 10.2 6.3 60 3.6 S 15 22 8 12 1018.7 1018.7 0.0
22/03:30am 13.8 10.5 6.4 61 3.5 SSW 13 20 7 11 1018.9 1018.9 0.0
22/03:00am 13.6 10.5 5.5 58 3.8 SSW 11 20 6 11 1018.9 1018.9 0.0
22/02:30am 13.0 10.2 5.2 59 3.6 SSW 9 15 5 8 1018.9 1018.9 0.0
22/02:00am 11.8 10.4 5.4 65 2.9 S 2 9 1 5 1019.1 1019.1 0.0
22/01:30am 12.1 10.4 3.9 57 3.7 SSW 2 9 1 5 1019.2 1019.2 0.0
22/01:00am 12.0 9.4 3.3 55 3.8 SSW 6 11 3 6 1019.4 1019.4 0.0
22/12:30am 10.9 9.1 3.7 61 3.2 SSW 2 9 1 5 1019.5 1019.5 0.0
22/12:00am 10.9 9.4 3.0 58 3.4 CALM 0 0 0 0 1019.6 1019.6 0.0
 
Date/Time
EST
Temp
°C
App
Temp
°C
Dew
Point
°C
Rel
Hum
%
Delta-T
°C
Wind Press
QNH
hPa
Press
MSL
hPa
Rain since
9am
mm
Dir  Spd
km/h
Gust
km/h
Spd
kts
Gust
kts
21/11:30pm 10.5 8.9 2.6 58 3.4 CALM 0 0 0 0 1019.8 1019.8 0.0
21/11:00pm 11.2 8.7 1.7 52 4.0 SW 4 7 2 4 1019.6 1019.6 0.0
21/10:30pm 11.6 8.8 1.8 51 4.2 WSW 6 7 3 4 1019.6 1019.6 0.0
21/10:00pm 12.2 10.4 0.9 46 4.7 CALM 0 0 0 0 1019.7 1019.7 0.0
21/09:30pm 13.5 10.8 0.5 41 5.5 SW 4 9 2 5 1019.6 1019.6 0.0
21/09:00pm 13.8 10.8 0.5 40 5.6 SW 6 11 3 6 1019.5 1019.5 0.0
21/08:30pm 14.9 11.8 1.1 39 6.0 WSW 7 13 4 7 1019.3 1019.3 0.0
21/08:00pm 14.7 12.0 2.6 44 5.4 WSW 6 9 3 5 1019.2 1019.2 0.0
21/07:30pm 15.3 12.6 3.8 46 5.3 SW 7 9 4 5 1019.1 1019.1 0.0
21/07:00pm 15.1 13.6 5.0 51 4.7 SW 2 7 1 4 1018.8 1018.8 0.0

Latest Capital City Observations: Canberra | Sydney | Melbourne | Brisbane | Adelaide | Perth | Hobart | Darwin

Other formats

Comma delimited format used in spreadsheet applications
http://www.bom.gov.au/fwo/IDQ60901/IDQ60901.94570.axf

JavaScript Object Notation format (JSON) in row-major order
http://www.bom.gov.au/fwo/IDQ60901/IDQ60901.94570.json

Data quality

Most of these data are generated automatically and are frequently updated. Quality checks on data are not normally performed. It is possible for incorrect values to appear. Refer to information at About Latest Weather Observations and please check the disclaimer before using these data.